Time;durP1;ratioP1;P1;durP2;ratioP2;P2;SDS_P1;SDS_P2;PMS_P1;PMS_P2;Temp;Humidity;BMP_temperature;BMP_pressure;BME280_temperature;BME280_humidity;BME280_pressure;Samples;Min_cycle;Max_cycle;Signal;HPM_P1;HPM_P2
2021/08/02 00:01:58;;;;;;;11.20;6.60;;;;;;;37.94;19.97;94160.47;5063404;28;20075;-56
2021/08/02 00:04:31;;;;;;;8.35;5.95;;;;;;;38.13;20.30;94165.78;5055894;28;20426;-55
2021/08/02 00:07:06;;;;;;;10.77;6.55;;;;;;;37.94;20.47;94165.94;5074585;28;20044;-58
2021/08/02 00:09:37;;;;;;;8.90;6.47;;;;;;;37.71;20.23;94164.00;5070615;28;20066;-56
2021/08/02 00:12:16;;;;;;;9.82;6.65;;;;;;;37.91;20.31;94166.88;5053224;28;20049;-52
2021/08/02 00:14:44;;;;;;;10.82;6.72;;;;;;;37.86;20.51;94169.50;5057552;28;20044;-56
2021/08/02 00:17:11;;;;;;;9.63;5.85;;;;;;;37.86;20.24;94169.50;5053057;28;20115;-58
2021/08/02 00:19:38;;;;;;;10.43;6.43;;;;;;;37.87;20.68;94171.00;5062009;28;20040;-57
2021/08/02 00:22:06;;;;;;;9.43;6.10;;;;;;;37.79;20.38;94165.16;5069654;28;20076;-57
2021/08/02 00:24:33;;;;;;;10.55;6.43;;;;;;;37.69;20.95;94174.59;5074398;28;20051;-54
2021/08/02 00:27:02;;;;;;;12.77;6.68;;;;;;;37.72;20.59;94168.22;5056492;28;20044;-55
2021/08/02 00:29:30;;;;;;;11.32;6.57;;;;;;;37.48;20.97;94167.50;5053904;28;20049;-57
2021/08/02 00:31:59;;;;;;;11.60;5.90;;;;;;;37.66;20.61;94167.34;5058644;28;20465;-52
2021/08/02 00:34:27;;;;;;;10.20;6.20;;;;;;;37.91;19.82;94161.41;5074031;28;20047;-54
2021/08/02 00:36:59;;;;;;;9.65;5.78;;;;;;;37.75;20.71;94161.13;5055995;28;20048;-50
2021/08/02 00:39:42;;;;;;;8.55;6.10;;;;;;;37.51;20.54;94169.28;5055812;28;20048;-54
2021/08/02 00:42:21;;;;;;;11.88;5.93;;;;;;;37.64;20.58;94158.88;5071645;28;20446;-51
2021/08/02 00:45:07;;;;;;;10.27;5.85;;;;;;;37.63;19.65;94151.91;5058393;28;20469;-56
2021/08/02 00:47:40;;;;;;;13.32;6.63;;;;;;;37.65;20.70;94152.22;5066891;28;20064;-54
2021/08/02 00:50:13;;;;;;;12.35;6.68;;;;;;;37.66;20.07;94150.97;5068686;28;20458;-53
2021/08/02 00:52:49;;;;;;;12.38;6.20;;;;;;;37.40;20.67;94147.25;5050896;28;20049;-56
2021/08/02 00:55:18;;;;;;;9.85;5.88;;;;;;;37.42;20.36;94142.81;5054802;28;20044;-53
2021/08/02 00:57:48;;;;;;;13.70;6.53;;;;;;;37.48;20.53;94137.50;5036590;28;20053;-54
2021/08/02 01:00:17;;;;;;;10.25;5.70;;;;;;;37.59;19.89;94129.53;5052447;28;20037;-52
2021/08/02 01:02:51;;;;;;;9.68;6.45;;;;;;;37.62;19.45;94125.88;5064473;28;20048;-54
2021/08/02 01:05:19;;;;;;;15.55;6.18;;;;;;;37.71;19.60;94122.31;5057439;28;20068;-52
2021/08/02 01:07:49;;;;;;;10.23;6.45;;;;;;;37.55;19.61;94112.59;5055654;28;20056;-54
2021/08/02 01:10:18;;;;;;;12.00;6.03;;;;;;;37.70;19.10;94107.94;5056280;28;20053;-50
2021/08/02 01:12:48;;;;;;;12.85;6.28;;;;;;;37.36;19.50;94095.63;5052810;28;20048;-50
2021/08/02 01:15:19;;;;;;;11.40;5.75;;;;;;;37.67;19.04;94103.41;5045245;28;20040;-55
2021/08/02 01:17:48;;;;;;;14.50;5.60;;;;;;;37.62;18.74;94110.25;5069301;28;20052;-53
2021/08/02 01:20:15;;;;;;;11.25;5.18;;;;;;;37.60;18.88;94103.78;5056302;28;20052;-52
2021/08/02 01:22:43;;;;;;;13.90;5.75;;;;;;;37.34;19.98;94095.34;5057588;28;20044;-58
2021/08/02 01:25:34;;;;;;;12.15;5.70;;;;;;;37.28;19.84;94110.84;5056346;28;20045;-52
2021/08/02 01:28:27;;;;;;;10.30;5.55;;;;;;;37.46;19.50;94109.94;5056625;28;20045;-54
2021/08/02 01:31:01;;;;;;;10.10;5.65;;;;;;;37.46;19.30;94109.94;5051264;28;20069;-52
2021/08/02 01:33:36;;;;;;;11.23;5.80;;;;;;;37.02;20.06;94105.81;5049436;28;20358;-60
2021/08/02 01:36:08;;;;;;;14.32;6.20;;;;;;;37.32;19.20;94084.91;5076280;28;20045;-50
2021/08/02 01:38:40;;;;;;;12.18;5.90;;;;;;;37.55;19.29;94088.81;5058261;28;20060;-50
2021/08/02 01:41:13;;;;;;;8.95;5.60;;;;;;;37.33;19.92;94083.69;5060553;28;20044;-53
2021/08/02 01:43:41;;;;;;;13.52;5.30;;;;;;;37.28;19.55;94070.72;5076007;28;20450;-53
2021/08/02 01:46:32;;;;;;;9.90;5.65;;;;;;;36.72;20.27;94077.66;5058055;28;20086;-56
2021/08/02 01:49:22;;;;;;;10.00;5.20;;;;;;;37.21;19.77;94062.84;5057736;28;20071;-57
2021/08/02 01:51:52;;;;;;;13.55;5.80;;;;;;;37.19;19.87;94068.00;5023140;28;20045;-54
2021/08/02 01:54:27;;;;;;;9.45;5.72;;;;;;;37.31;19.64;94056.16;5053291;28;20055;-55
2021/08/02 01:57:20;;;;;;;9.18;5.15;;;;;;;37.46;19.84;94061.63;5039107;28;20054;-54
2021/08/02 02:00:08;;;;;;;8.68;5.32;;;;;;;37.07;20.65;94068.25;5050826;28;20048;-54
2021/08/02 02:03:12;;;;;;;11.10;5.47;;;;;;;37.23;20.03;94060.44;5063717;28;20040;-56
2021/08/02 02:05:57;;;;;;;13.15;5.72;;;;;;;37.25;20.42;94063.47;5035126;22;20387;-56
2021/08/02 02:08:51;;;;;;;12.05;5.63;;;;;;;37.04;20.73;94070.69;5056599;28;20087;-59
2021/08/02 02:11:33;;;;;;;9.93;6.18;;;;;;;37.12;20.90;94075.78;5060537;28;20061;-53
2021/08/02 02:14:10;;;;;;;8.90;6.18;;;;;;;37.31;20.91;94072.50;5058596;28;20041;-53
2021/08/02 02:16:42;;;;;;;14.45;6.65;;;;;;;37.26;20.63;94070.44;5074873;28;20362;-51
2021/08/02 02:19:09;;;;;;;9.55;6.07;;;;;;;37.09;21.03;94087.63;5076028;28;20040;-52
2021/08/02 02:21:38;;;;;;;10.63;6.40;;;;;;;37.22;21.43;94064.38;5076449;28;20103;-52
2021/08/02 02:24:10;;;;;;;12.00;6.63;;;;;;;37.31;21.20;94060.84;5058333;28;20045;-55
2021/08/02 02:26:39;;;;;;;11.45;7.00;;;;;;;37.20;21.44;94064.06;5057874;28;20044;-52
2021/08/02 02:29:11;;;;;;;12.70;6.70;;;;;;;37.18;21.44;94058.34;5074760;28;20052;-55
2021/08/02 02:31:41;;;;;;;9.23;6.20;;;;;;;36.99;21.49;94067.88;5075382;28;20056;-49
2021/08/02 02:34:11;;;;;;;10.00;6.63;;;;;;;37.00;21.31;94064.69;5057597;28;20283;-57
2021/08/02 02:36:40;;;;;;;10.82;6.85;;;;;;;37.15;21.61;94056.53;5057474;28;20057;-53
2021/08/02 02:39:10;;;;;;;14.75;7.28;;;;;;;36.70;21.89;94063.78;5058472;28;20052;-52
2021/08/02 02:41:37;;;;;;;11.55;6.95;;;;;;;37.06;21.71;94062.06;5041827;28;20370;-50
2021/08/02 02:44:06;;;;;;;13.80;7.38;;;;;;;36.82;22.04;94069.47;5042090;28;20048;-57
2021/08/02 02:46:35;;;;;;;10.05;6.32;;;;;;;37.18;21.31;94057.56;5075072;28;20048;-52
2021/08/02 02:49:04;;;;;;;10.27;6.60;;;;;;;38.05;20.49;94052.78;5056924;28;20047;-50
2021/08/02 02:51:32;;;;;;;11.13;6.80;;;;;;;38.22;20.53;94053.81;5074840;28;20075;-57
2021/08/02 02:54:01;;;;;;;13.45;6.70;;;;;;;37.95;20.73;94046.66;5058209;28;20509;-65
2021/08/02 02:56:34;;;;;;;9.55;6.57;;;;;;;38.00;21.08;94058.88;5057729;28;20055;-63
2021/08/02 02:59:01;;;;;;;9.10;6.40;;;;;;;37.83;21.04;94066.78;5069261;28;20036;-63
2021/08/02 03:01:35;;;;;;;10.52;6.78;;;;;;;37.81;21.04;94055.59;5041488;28;20071;-64
2021/08/02 03:04:03;;;;;;;12.07;7.55;;;;;;;37.90;21.17;94069.91;5057714;28;20051;-62
2021/08/02 03:06:33;;;;;;;11.02;7.55;;;;;;;37.77;21.12;94053.06;5057337;28;20044;-64
2021/08/02 03:09:02;;;;;;;8.00;6.30;;;;;;;37.62;21.31;94068.63;5056710;28;20053;-65
2021/08/02 03:11:29;;;;;;;11.07;6.60;;;;;;;37.97;20.88;94058.59;5075256;28;20447;-64
2021/08/02 03:13:57;;;;;;;14.45;7.18;;;;;;;37.74;20.94;94066.88;5074042;28;20052;-65
2021/08/02 03:16:24;;;;;;;13.23;7.40;;;;;;;37.94;20.46;94065.00;5075407;28;20048;-62
2021/08/02 03:18:52;;;;;;;14.85;7.38;;;;;;;37.78;21.27;94076.38;5073906;28;20055;-62
2021/08/02 03:21:20;;;;;;;16.33;7.10;;;;;;;37.60;21.55;94071.06;5075082;28;20044;-63
2021/08/02 03:23:57;;;;;;;12.27;7.40;;;;;;;37.65;21.36;94070.41;5074771;28;20056;-57
2021/08/02 03:26:36;;;;;;;7.88;6.07;;;;;;;37.39;21.56;94070.16;5056481;28;20134;-61
2021/08/02 03:29:27;;;;;;;12.02;6.72;;;;;;;37.62;21.20;94074.06;5056502;28;20052;-64
2021/08/02 03:32:01;;;;;;;12.73;7.20;;;;;;;37.50;21.35;94075.09;5073679;28;20055;-58
2021/08/02 03:34:32;;;;;;;10.52;6.78;;;;;;;37.29;21.38;94080.41;5073742;28;20052;-62
2021/08/02 03:37:01;;;;;;;11.77;6.70;;;;;;;37.80;20.69;94090.31;5053622;28;20049;-65
2021/08/02 03:39:28;;;;;;;13.73;7.10;;;;;;;37.58;21.02;94084.41;5057118;28;20059;-60
2021/08/02 03:41:56;;;;;;;15.20;7.55;;;;;;;37.66;20.82;94091.00;5056902;28;20047;-61
2021/08/02 03:44:25;;;;;;;12.00;6.88;;;;;;;37.34;21.05;94087.16;5057274;28;20051;-62
2021/08/02 03:46:53;;;;;;;10.52;6.82;;;;;;;37.30;20.90;94090.06;5056831;28;20045;-64
2021/08/02 03:49:21;;;;;;;10.80;6.72;;;;;;;37.38;21.40;94089.72;5055482;28;20045;-64
2021/08/02 03:51:54;;;;;;;10.95;7.15;;;;;;;37.43;21.11;94091.78;5074906;28;20056;-62
2021/08/02 03:54:21;;;;;;;16.38;7.93;;;;;;;37.53;20.79;94099.44;5073748;28;20358;-64
2021/08/02 03:56:49;;;;;;;11.48;7.53;;;;;;;37.36;20.98;94090.19;5074607;28;20041;-64
2021/08/02 03:59:16;;;;;;;15.73;7.05;;;;;;;37.48;21.00;94085.72;5072114;28;20447;-64
2021/08/02 04:01:44;;;;;;;15.05;7.13;;;;;;;37.30;21.09;94078.44;5070317;28;20044;-65
2021/08/02 04:04:13;;;;;;;14.18;7.43;;;;;;;37.20;21.44;94077.69;5074355;28;20048;-56
2021/08/02 04:06:40;;;;;;;18.15;7.93;;;;;;;35.86;23.33;94080.03;5057776;28;20383;-57
2021/08/02 04:09:10;;;;;;;16.10;8.23;;;;;;;35.81;23.21;94078.66;5063420;28;20061;-67
2021/08/02 04:11:38;;;;;;;14.77;7.63;;;;;;;35.82;23.49;94080.19;5072411;28;20450;-64
2021/08/02 04:14:06;;;;;;;12.73;7.25;;;;;;;35.78;23.97;94073.38;5073617;28;20055;-56
2021/08/02 04:16:34;;;;;;;11.93;7.38;;;;;;;35.71;23.82;94074.44;5074048;28;20351;-50
2021/08/02 04:19:02;;;;;;;12.38;7.40;;;;;;;35.54;23.87;94071.28;5074258;28;20074;-59
2021/08/02 04:21:29;;;;;;;17.58;8.05;;;;;;;35.80;23.93;94090.00;5055796;28;20358;-55
2021/08/02 04:23:56;;;;;;;14.27;8.07;;;;;;;36.26;23.50;94087.22;5074056;28;20052;-59
2021/08/02 04:26:24;;;;;;;12.77;7.50;;;;;;;36.01;23.86;94072.75;5073489;28;20044;-53
2021/08/02 04:28:57;;;;;;;14.80;8.02;;;;;;;36.01;23.46;94086.38;5073753;28;20051;-58
2021/08/02 04:31:25;;;;;;;15.80;7.60;;;;;;;35.98;23.56;94079.13;5073647;28;20043;-45
2021/08/02 04:33:54;;;;;;;13.52;7.72;;;;;;;36.03;23.70;94089.38;5074103;28;20045;-68
2021/08/02 04:36:22;;;;;;;9.77;7.15;;;;;;;36.37;23.44;94079.31;5056012;28;20052;-59
2021/08/02 04:38:49;;;;;;;16.90;8.02;;;;;;;36.38;23.43;94086.28;5074164;28;20439;-55
2021/08/02 04:41:18;;;;;;;10.57;7.15;;;;;;;36.48;22.99;94076.88;5073498;28;20468;-62
2021/08/02 04:43:45;;;;;;;16.00;8.27;;;;;;;36.52;22.86;94091.06;5073467;28;20056;-60
2021/08/02 04:46:12;;;;;;;17.33;7.72;;;;;;;36.47;22.98;94082.78;5074169;28;20051;-60
2021/08/02 04:48:39;;;;;;;12.30;7.22;;;;;;;36.63;22.53;94094.03;5073033;28;20040;-60
2021/08/02 04:51:06;;;;;;;14.88;7.72;;;;;;;36.44;22.72;94089.91;5071042;28;20398;-58
2021/08/02 04:53:33;;;;;;;11.45;6.88;;;;;;;36.58;22.59;94078.34;5074172;28;20473;-64
2021/08/02 04:56:01;;;;;;;12.00;6.97;;;;;;;36.46;23.01;94082.03;5077997;28;20049;-60
2021/08/02 04:58:28;;;;;;;13.02;7.13;;;;;;;38.61;20.97;94073.53;5076774;28;20075;-59
2021/08/02 05:00:55;;;;;;;14.27;6.90;;;;;;;38.69;21.45;94090.28;5077693;28;20036;-58
2021/08/02 05:03:22;;;;;;;11.82;7.25;;;;;;;37.19;23.06;94076.19;5077095;28;20053;-61
2021/08/02 05:05:52;;;;;;;10.90;6.80;;;;;;;37.36;22.51;94084.72;5076436;28;20044;-60
2021/08/02 05:08:19;;;;;;;12.10;7.28;;;;;;;37.38;21.69;94092.44;5077607;28;20055;-61
2021/08/02 05:10:46;;;;;;;17.00;7.57;;;;;;;37.18;22.41;94085.56;5077782;28;20036;-60
2021/08/02 05:13:13;;;;;;;10.25;7.38;;;;;;;37.07;21.79;94090.81;5076570;28;20045;-58
2021/08/02 05:15:40;;;;;;;14.25;7.70;;;;;;;37.33;22.19;94091.13;5076681;28;20041;-59
2021/08/02 05:18:07;;;;;;;14.07;7.90;;;;;;;37.12;22.64;94097.59;5076923;28;20458;-61
2021/08/02 05:20:34;;;;;;;14.77;7.93;;;;;;;37.34;21.99;94095.34;5077612;28;20047;-60
2021/08/02 05:23:02;;;;;;;17.17;8.65;;;;;;;37.22;21.47;94074.53;5077166;28;20048;-62
2021/08/02 05:25:29;;;;;;;15.73;8.20;;;;;;;37.55;21.15;94104.44;5077374;28;20115;-61
2021/08/02 05:27:56;;;;;;;15.02;8.15;;;;;;;37.44;22.08;94106.94;5077171;28;20453;-59
2021/08/02 05:30:23;;;;;;;13.85;7.78;;;;;;;37.59;21.71;94110.44;5077332;28;20045;-61
2021/08/02 05:32:50;;;;;;;14.45;8.35;;;;;;;37.78;21.03;94125.47;5076811;28;20045;-63
2021/08/02 05:35:17;;;;;;;18.42;8.35;;;;;;;37.82;20.80;94131.50;5077080;28;20359;-57
2021/08/02 05:37:44;;;;;;;11.95;8.07;;;;;;;37.82;21.14;94136.94;5075544;28;20346;-61
2021/08/02 05:40:12;;;;;;;20.33;8.40;;;;;;;38.06;21.35;94138.88;5077276;28;20044;-61
2021/08/02 05:42:39;;;;;;;14.43;8.00;;;;;;;38.09;21.53;94137.94;5076943;28;20442;-61
2021/08/02 05:45:08;;;;;;;19.33;8.43;;;;;;;38.04;21.34;94135.84;5076940;28;20052;-59
2021/08/02 05:47:35;;;;;;;11.43;7.72;;;;;;;38.31;20.98;94149.25;5076687;28;20371;-62
2021/08/02 05:50:03;;;;;;;10.23;7.32;;;;;;;38.40;20.91;94157.34;5076500;28;20044;-63
2021/08/02 05:52:30;;;;;;;18.00;8.57;;;;;;;38.31;20.86;94149.25;5076115;28;20040;-64
2021/08/02 05:54:58;;;;;;;12.13;8.10;;;;;;;38.47;19.95;94151.50;5076778;28;20056;-64
2021/08/02 05:57:25;;;;;;;11.35;7.43;;;;;;;38.85;20.45;94147.91;5075844;28;20052;-61
2021/08/02 05:59:52;;;;;;;12.45;7.78;;;;;;;39.05;19.56;94149.19;5076473;28;20041;-64
2021/08/02 06:02:19;;;;;;;15.73;8.30;;;;;;;39.02;19.33;94155.56;5074334;28;20044;-59
2021/08/02 06:04:47;;;;;;;13.52;8.20;;;;;;;38.88;19.46;94145.44;5076287;28;20044;-63
2021/08/02 06:07:15;;;;;;;12.98;8.10;;;;;;;38.95;19.67;94145.78;5075482;28;20056;-62
2021/08/02 06:09:42;;;;;;;15.75;7.50;;;;;;;39.03;19.56;94152.38;5076157;28;20044;-64
2021/08/02 06:12:09;;;;;;;13.00;7.65;;;;;;;39.11;19.69;94145.31;5076506;28;20393;-60
2021/08/02 06:14:37;;;;;;;14.27;8.35;;;;;;;39.36;19.11;94148.63;5075660;28;20048;-61
2021/08/02 06:17:04;;;;;;;12.10;7.25;;;;;;;39.43;18.57;94145.47;5076698;28;20052;-62
2021/08/02 06:19:32;;;;;;;16.38;7.45;;;;;;;39.15;19.50;94154.06;5076262;28;20056;-61
2021/08/02 06:21:59;;;;;;;13.57;7.75;;;;;;;39.39;18.79;94155.88;5076113;28;20450;-63
2021/08/02 06:24:26;;;;;;;15.57;8.15;;;;;;;39.65;18.52;94151.25;5075708;28;20044;-61
2021/08/02 06:26:53;;;;;;;13.85;7.65;;;;;;;39.57;19.33;94150.16;5076194;28;20044;-60
2021/08/02 06:29:20;;;;;;;15.10;7.25;;;;;;;39.69;18.79;94156.50;5076007;28;20362;-64
2021/08/02 06:31:47;;;;;;;15.77;7.90;;;;;;;39.83;18.33;94160.41;5076011;28;20371;-63
2021/08/02 06:34:15;;;;;;;15.95;7.47;;;;;;;39.91;18.10;94161.47;5075981;28;20055;-62
2021/08/02 06:36:42;;;;;;;17.33;7.95;;;;;;;40.17;17.84;94150.56;5075423;28;20055;-64
2021/08/02 06:39:09;;;;;;;12.00;7.38;;;;;;;40.16;17.89;94158.03;5075500;28;20396;-64
2021/08/02 06:41:36;;;;;;;15.63;7.15;;;;;;;40.61;17.46;94150.25;5075201;28;20045;-61
2021/08/02 06:44:03;;;;;;;12.85;7.45;;;;;;;40.57;17.29;94160.63;5075553;28;20048;-61
2021/08/02 06:46:30;;;;;;;13.25;7.25;;;;;;;40.50;17.55;94153.63;5075893;28;20044;-61
2021/08/02 06:48:57;;;;;;;12.18;6.63;;;;;;;40.82;17.17;94159.13;5075112;28;20051;-64
2021/08/02 06:51:24;;;;;;;14.48;7.05;;;;;;;40.86;17.01;94157.69;5075354;28;20060;-62
2021/08/02 06:53:51;;;;;;;10.32;7.30;;;;;;;41.03;17.44;94157.00;5075961;28;20048;-63
2021/08/02 06:56:18;;;;;;;20.38;8.02;;;;;;;41.06;16.54;94159.53;5075187;28;20059;-64
2021/08/02 06:58:45;;;;;;;17.20;6.80;;;;;;;41.17;16.61;94156.13;5075586;28;20044;-63
2021/08/02 07:01:12;;;;;;;15.80;7.22;;;;;;;41.27;17.01;94149.22;5075347;28;20044;-64
2021/08/02 07:03:40;;;;;;;16.08;6.70;;;;;;;41.80;16.60;94147.72;5062688;28;20056;-59
2021/08/02 07:06:08;;;;;;;13.50;6.95;;;;;;;41.66;16.48;94140.44;5065648;28;20474;-59
2021/08/02 07:08:38;;;;;;;18.63;7.25;;;;;;;42.10;15.95;94157.03;5075068;28;20371;-58
2021/08/02 07:11:06;;;;;;;13.32;6.75;;;;;;;42.15;15.84;94152.78;5075239;28;20044;-58
2021/08/02 07:13:34;;;;;;;19.40;7.00;;;;;;;42.26;15.65;94154.81;5074741;28;20041;-60
2021/08/02 07:16:02;;;;;;;12.95;6.60;;;;;;;42.36;15.91;94150.59;5075335;28;20052;-62
2021/08/02 07:18:32;;;;;;;14.98;7.03;;;;;;;42.20;15.34;94154.06;5075045;28;20049;-61
2021/08/02 07:20:59;;;;;;;16.55;6.85;;;;;;;42.50;15.59;94138.66;5074434;28;20036;-57
2021/08/02 07:23:26;;;;;;;10.95;6.22;;;;;;;42.58;15.32;94139.63;5074324;28;20067;-59
2021/08/02 07:25:54;;;;;;;13.35;6.78;;;;;;;42.59;15.00;94146.63;5074669;28;20385;-62
2021/08/02 07:28:21;;;;;;;15.85;7.55;;;;;;;42.41;14.91;94145.09;5056545;28;20048;-60
2021/08/02 07:30:48;;;;;;;14.45;7.13;;;;;;;43.01;15.12;94151.13;5074645;28;20051;-60
2021/08/02 07:33:15;;;;;;;15.68;6.97;;;;;;;42.97;14.94;94152.63;5073658;28;20045;-62
2021/08/02 07:35:43;;;;;;;15.73;7.05;;;;;;;43.14;14.81;94136.84;5073611;28;20044;-60
2021/08/02 07:38:11;;;;;;;17.20;7.10;;;;;;;43.18;15.04;94134.56;5073639;28;20378;-63
2021/08/02 07:40:38;;;;;;;16.13;7.40;;;;;;;43.55;14.84;94139.75;5075048;28;20493;-61
2021/08/02 07:43:06;;;;;;;17.33;8.05;;;;;;;43.47;14.56;94143.53;5074663;28;20051;-61
2021/08/02 07:45:33;;;;;;;16.77;7.50;;;;;;;43.37;14.77;94137.53;5074591;28;20052;-60
2021/08/02 07:48:01;;;;;;;14.77;7.45;;;;;;;43.54;14.78;94126.50;5056889;28;20055;-60
2021/08/02 07:50:28;;;;;;;13.07;6.82;;;;;;;43.71;14.20;94124.41;5074302;28;20051;-62
2021/08/02 07:52:56;;;;;;;17.60;7.20;;;;;;;43.53;14.38;94120.25;5073443;28;20045;-60
2021/08/02 07:55:23;;;;;;;13.77;7.22;;;;;;;43.92;14.24;94122.81;5074689;28;20439;-63
2021/08/02 07:57:50;;;;;;;17.42;7.70;;;;;;;43.83;14.29;94131.38;5074820;28;20056;-64
2021/08/02 08:00:18;;;;;;;16.40;7.18;;;;;;;43.97;13.75;94127.53;5073748;28;20040;-61
2021/08/02 08:02:46;;;;;;;15.25;7.75;;;;;;;44.20;14.12;94121.91;5073919;28;20040;-63
2021/08/02 08:05:14;;;;;;;19.83;7.80;;;;;;;44.18;13.60;94121.66;5073932;28;20052;-63
2021/08/02 08:07:50;;;;;;;17.05;7.15;;;;;;;44.27;14.20;94127.63;5053822;28;20065;-62
2021/08/02 08:10:19;;;;;;;13.20;6.90;;;;;;;44.61;14.07;94123.88;5074115;28;20071;-61
2021/08/02 08:12:47;;;;;;;15.98;7.30;;;;;;;44.66;13.76;94126.59;5074358;28;20051;-64
2021/08/02 08:15:15;;;;;;;16.33;6.88;;;;;;;44.38;13.49;94124.03;5056605;28;20268;-60
2021/08/02 08:17:42;;;;;;;15.90;7.20;;;;;;;44.49;13.39;94123.97;5074564;28;20359;-61
2021/08/02 08:20:12;;;;;;;14.63;6.63;;;;;;;44.73;13.34;94114.25;5073407;28;20056;-63
2021/08/02 08:22:40;;;;;;;16.42;7.60;;;;;;;44.95;13.25;94114.06;5073732;28;20051;-62
2021/08/02 08:25:08;;;;;;;22.35;7.13;;;;;;;45.02;13.10;94107.97;5074329;28;20056;-62
2021/08/02 08:27:36;;;;;;;16.95;6.85;;;;;;;44.87;13.19;94108.38;5078560;28;20051;-61
2021/08/02 08:30:06;;;;;;;14.68;6.47;;;;;;;45.13;13.34;94102.34;5077656;28;20055;-63
2021/08/02 08:32:33;;;;;;;13.50;6.68;;;;;;;45.16;13.26;94100.56;5077219;28;20474;-62
2021/08/02 08:35:00;;;;;;;16.83;6.70;;;;;;;45.39;12.84;94090.03;5064864;28;20360;-59
2021/08/02 08:37:27;;;;;;;15.90;6.72;;;;;;;45.36;13.47;94096.59;5077981;28;20051;-62
2021/08/02 08:39:54;;;;;;;16.48;6.53;;;;;;;45.52;13.18;94095.63;5077330;28;20477;-62
2021/08/02 08:42:21;;;;;;;13.93;6.95;;;;;;;45.75;12.88;94088.56;5060763;28;20366;-60
2021/08/02 08:44:48;;;;;;;18.58;6.70;;;;;;;45.33;13.81;94083.84;5077923;28;20056;-59
2021/08/02 08:47:16;;;;;;;50.13;8.57;;;;;;;47.40;8.88;94081.38;5078069;28;20059;-61
2021/08/02 08:49:43;;;;;;;10.15;4.78;;;;;;;46.93;9.25;94084.03;5077574;28;20044;-61
2021/08/02 08:52:10;;;;;;;21.02;5.65;;;;;;;47.26;8.55;94082.66;5078093;28;20044;-63
2021/08/02 08:54:37;;;;;;;16.75;5.15;;;;;;;46.82;8.95;94084.97;5059126;28;20036;-59
2021/08/02 08:57:09;;;;;;;14.00;5.68;;;;;;;46.93;9.70;94075.72;5077237;28;20048;-58
2021/08/02 08:59:52;;;;;;;18.98;5.40;;;;;;;46.79;9.81;94066.66;5077163;28;20040;-56
2021/08/02 09:02:29;;;;;;;15.68;4.50;;;;;;;46.69;9.82;94071.09;5077253;28;20055;-56
2021/08/02 09:04:58;;;;;;;17.88;6.22;;;;;;;46.70;9.33;94065.03;5077475;28;20047;-63
2021/08/02 09:07:44;;;;;;;17.40;5.13;;;;;;;46.74;8.83;94061.97;5076305;28;20439;-63
2021/08/02 09:10:14;;;;;;;15.38;5.03;;;;;;;46.84;9.15;94060.28;5076905;28;20044;-61
2021/08/02 09:12:59;;;;;;;14.18;4.95;;;;;;;46.71;9.18;94051.97;5077520;28;20052;-62
2021/08/02 09:15:39;;;;;;;14.75;5.38;;;;;;;46.76;8.31;94053.91;5077634;28;20052;-62
2021/08/02 09:18:08;;;;;;;;;;;;;;;46.66;8.69;94050.06;5078162;28;20044;-61
2021/08/02 09:20:38;;;;;;;15.55;5.03;;;;;;;46.69;8.70;94066.31;5076657;28;19919;-58
2021/08/02 09:23:06;;;;;;;11.73;5.47;;;;;;;46.65;8.42;94051.31;5076237;28;20053;-60
2021/08/02 09:25:33;;;;;;;22.45;5.07;;;;;;;46.60;8.27;94043.88;5076252;28;20119;-62
2021/08/02 09:28:12;;;;;;;14.57;5.18;;;;;;;46.34;8.66;94036.25;5077077;28;20040;-60
2021/08/02 09:30:39;;;;;;;18.90;4.95;;;;;;;46.76;8.58;94037.31;5075820;28;20056;-60
2021/08/02 09:33:08;;;;;;;17.38;5.18;;;;;;;47.07;8.08;94046.03;5077215;28;20047;-64
2021/08/02 09:35:41;;;;;;;14.18;5.00;;;;;;;47.02;7.81;94036.56;5077193;28;20044;-63
2021/08/02 09:38:10;;;;;;;19.88;7.15;;;;;;;47.19;7.92;94055.63;5076926;28;20053;-66
2021/08/02 09:40:54;;;;;;;13.17;4.70;;;;;;;47.13;7.55;94032.88;5076975;28;20363;-67
2021/08/02 09:43:24;;;;;;;17.08;5.45;;;;;;;47.15;8.08;94036.59;5076436;28;20044;-65
2021/08/02 09:45:59;;;;;;;21.00;6.00;;;;;;;47.02;7.61;94044.13;5075956;28;20047;-65
2021/08/02 09:48:38;;;;;;;17.52;5.00;;;;;;;47.39;7.46;94045.94;5067656;28;20048;-64
2021/08/02 09:51:13;;;;;;;17.90;4.70;;;;;;;47.08;7.71;94033.69;5056776;28;20049;-61
2021/08/02 09:53:42;;;;;;;18.30;5.25;;;;;;;47.12;7.79;94034.91;5056070;28;20052;-56
2021/08/02 09:56:15;;;;;;;14.38;5.13;;;;;;;47.33;8.03;94026.66;5056549;28;20049;-57
2021/08/02 09:58:43;;;;;;;14.60;4.40;;;;;;;47.25;7.58;94023.81;5057061;28;20051;-66
2021/08/02 10:01:18;;;;;;;16.73;5.30;;;;;;;47.48;8.08;94040.72;5060077;28;20079;-62
2021/08/02 10:03:46;;;;;;;15.93;5.10;;;;;;;47.58;8.17;94024.38;5075786;28;20063;-60
2021/08/02 10:06:14;;;;;;;15.63;4.63;;;;;;;47.55;7.77;94031.75;5074153;28;20060;-57
2021/08/02 10:08:42;;;;;;;15.45;4.72;;;;;;;47.58;7.45;94025.13;5063782;28;20378;-60
2021/08/02 10:11:10;;;;;;;18.52;5.18;;;;;;;47.72;6.88;94022.34;5065653;28;20063;-56
2021/08/02 10:13:44;;;;;;;21.83;5.53;;;;;;;47.59;7.01;94007.25;5065267;28;20056;-55
2021/08/02 10:16:14;;;;;;;17.55;5.13;;;;;;;47.50;7.07;94018.78;5065237;28;20048;-56
2021/08/02 10:18:47;;;;;;;16.77;5.05;;;;;;;47.44;6.79;94014.63;5064368;28;20059;-58
2021/08/02 10:21:14;;;;;;;15.52;4.93;;;;;;;47.63;7.23;94003.41;5072327;28;20443;-58
2021/08/02 10:23:42;;;;;;;19.77;4.40;;;;;;;47.68;6.88;94006.06;5073055;28;20463;-52
2021/08/02 10:26:20;;;;;;;14.38;4.95;;;;;;;47.62;6.22;94024.06;5072993;28;20052;-55
2021/08/02 10:28:58;;;;;;;15.63;5.18;;;;;;;47.48;5.83;94024.09;5074537;28;20064;-55
2021/08/02 10:31:26;;;;;;;17.33;4.88;;;;;;;47.60;5.35;94033.66;5074627;28;20048;-55
2021/08/02 10:33:55;;;;;;;18.40;4.95;;;;;;;47.49;5.74;94017.28;5068076;28;20049;-56
2021/08/02 10:36:23;;;;;;;20.95;4.60;;;;;;;47.60;5.80;94022.56;5064361;28;20052;-59
2021/08/02 10:38:52;;;;;;;18.05;4.38;;;;;;;47.74;4.84;94026.06;5076167;28;20434;-64
2021/08/02 10:41:31;;;;;;;15.75;4.00;;;;;;;47.71;5.13;94026.38;5075203;28;20044;-62
2021/08/02 10:44:16;;;;;;;13.47;4.40;;;;;;;47.81;4.66;94014.31;5075868;28;20086;-64
2021/08/02 10:46:43;;;;;;;17.42;4.28;;;;;;;47.63;4.52;94025.53;5075122;28;20047;-69
2021/08/02 10:49:13;;;;;;;18.23;5.57;;;;;;;47.68;4.99;94011.59;5056506;28;20053;-60
2021/08/02 10:51:52;;;;;;;15.30;4.93;;;;;;;47.74;4.98;93997.63;5075825;28;20045;-63
2021/08/02 10:54:20;;;;;;;16.67;4.45;;;;;;;47.70;4.67;94008.28;5075270;28;20351;-64
2021/08/02 10:56:51;;;;;;;14.70;4.57;;;;;;;47.57;5.06;93979.34;5058018;28;20048;-65
2021/08/02 10:59:20;;;;;;;27.00;15.45;;;;;;;47.69;5.11;94001.28;5057713;28;20048;-61
2021/08/02 11:01:52;;;;;;;16.67;6.45;;;;;;;47.74;5.29;93998.38;5075077;28;20044;-62
2021/08/02 11:04:21;;;;;;;19.92;5.03;;;;;;;47.67;5.21;94009.38;5057294;28;20052;-62
2021/08/02 11:06:53;;;;;;;12.68;4.13;;;;;;;47.86;4.70;93998.88;5074788;28;20317;-60
2021/08/02 11:09:30;;;;;;;23.23;5.20;;;;;;;47.78;4.63;94003.56;5075168;28;20356;-60
2021/08/02 11:12:10;;;;;;;22.60;4.85;;;;;;;47.62;4.74;93996.38;5075445;28;20048;-64
2021/08/02 11:14:54;;;;;;;19.38;5.07;;;;;;;47.65;5.16;93995.31;5057174;28;20048;-64
2021/08/02 11:17:24;;;;;;;16.35;5.22;;;;;;;47.50;4.96;93982.06;5074248;28;20051;-56
2021/08/02 11:20:03;;;;;;;15.88;4.97;;;;;;;47.61;4.84;93984.56;5057512;28;20079;-65
2021/08/02 11:22:30;;;;;;;22.25;5.07;;;;;;;47.52;5.09;93983.00;5075300;28;20040;-60
2021/08/02 11:25:00;;;;;;;19.55;5.07;;;;;;;47.52;4.90;93982.25;5057344;28;20371;-59
2021/08/02 11:27:27;;;;;;;23.00;5.85;;;;;;;47.68;5.02;93970.06;5074090;28;20052;-59
2021/08/02 11:29:55;;;;;;;24.10;6.00;;;;;;;47.56;5.29;93983.41;5074946;28;20052;-61
2021/08/02 11:32:22;;;;;;;18.83;5.40;;;;;;;47.40;5.23;93995.59;5074813;28;20451;-63
2021/08/02 11:34:55;;;;;;;22.55;5.90;;;;;;;47.41;5.73;93982.50;5057229;28;20451;-64
2021/08/02 11:37:24;;;;;;;19.77;7.85;;;;;;;47.54;5.60;93980.44;5073797;28;20055;-63
2021/08/02 11:40:03;;;;;;;21.00;6.83;;;;;;;47.52;5.36;93990.56;5074825;28;20386;-63
2021/08/02 11:42:32;;;;;;;23.80;5.85;;;;;;;47.45;5.09;93989.19;5074307;28;20048;-61
2021/08/02 11:45:02;;;;;;;27.15;5.80;;;;;;;47.62;5.22;93996.38;5074710;28;20087;-67